LFAC Airport Information

Runway Information
Runway 06 Length 5036 ft width 148 ft
Elevation 11 ft Threshold 0 ft Heading 61
Runway 24 Length 5036 ft Width 148 ft
Elevation 11 ft Threshold 0 ft Heading 241
Airport Frequencies
Type APP Name LILLE APP Frequency 120.275 MHZ
Type ATIS Name ATIS Frequency 135.45 MHZ
Type TWR Name TWR Frequency 128.925 MHZ
Airport Navaids
Airport Weather Information & NOTAM
ADDS - METARS form results

(0739 UTC 28 July 2021)
Data provider http://aviationweather.gov/metar/data/
 
METAR text: LFAC 280730Z AUTO 24016KT 9999 OVC014 17/15 Q1008
Conditions at: LFAC (CALAIS/DUNKERQUE, FR) observed 0730 UTC 28 July 2021
Temperature: 17.0°C (63°F)
Dewpoint: 15.0°C (59°F) [RH = 88%]
Pressure (altimeter): 29.76 inches Hg (1008.0 mb)
Winds: from the WSW (240 degrees) at 18 MPH (16 knots; 8.2 m/s)
Visibility: 6 or more miles (10+ km)
Ceiling: 1400 feet AGL
Clouds: overcast cloud deck at 1400 feet AGL
Weather: no significant weather observed at this time

METAR text: LFAC 280700Z AUTO 24013KT 210V270 9999 OVC013 17/15 Q1008
Conditions at: LFAC (CALAIS/DUNKERQUE, FR) observed 0700 UTC 28 July 2021
Temperature: 17.0°C (63°F)
Dewpoint: 15.0°C (59°F) [RH = 88%]
Pressure (altimeter): 29.76 inches Hg (1008.0 mb)
Winds: from the WSW (240 degrees) at 15 MPH (13 knots; 6.7 m/s)
Visibility: 6 or more miles (10+ km)
Ceiling: 1300 feet AGL
Clouds: overcast cloud deck at 1300 feet AGL
Weather: no significant weather observed at this time